createdAt,value
2022-08-16T00:01:28.977Z,10.88
2022-08-16T00:04:00.359Z,11.38
2022-08-16T00:06:27.410Z,11.20
2022-08-16T00:08:53.714Z,11.40
2022-08-16T00:13:53.322Z,11.35
2022-08-16T00:17:06.470Z,12.15
2022-08-16T00:19:13.706Z,11.57
2022-08-16T00:21:40.470Z,11.40
2022-08-16T00:24:06.871Z,11.48
2022-08-16T00:26:45.019Z,12.05
2022-08-16T00:29:12.911Z,11.77
2022-08-16T00:31:58.581Z,11.20
2022-08-16T00:34:41.867Z,11.65
2022-08-16T00:37:11.248Z,11.90
2022-08-16T00:39:37.633Z,12.18
2022-08-16T00:42:05.520Z,11.40
2022-08-16T00:44:37.361Z,11.57
2022-08-16T00:47:06.629Z,12.18
2022-08-16T00:49:39.534Z,12.38
2022-08-16T00:52:29.654Z,12.15
2022-08-16T00:54:57.087Z,12.30
2022-08-16T00:57:24.039Z,11.98
2022-08-16T00:59:58.831Z,12.82
2022-08-16T01:02:31.834Z,12.25
2022-08-16T01:05:11.394Z,12.30
2022-08-16T01:07:50.562Z,12.38
2022-08-16T01:10:19.251Z,12.32
2022-08-16T01:12:45.679Z,12.48
2022-08-16T01:15:13.049Z,12.40
2022-08-16T01:17:40.411Z,11.68
2022-08-16T01:20:11.668Z,13.75
2022-08-16T01:22:55.992Z,13.32
2022-08-16T01:25:34.203Z,13.57
2022-08-16T01:28:01.631Z,13.38
2022-08-16T01:30:31.771Z,13.38
2022-08-16T01:33:02.540Z,13.20
2022-08-16T01:35:44.263Z,13.10
2022-08-16T01:38:19.980Z,12.68
2022-08-16T01:40:49.607Z,12.88
2022-08-16T01:43:16.279Z,13.07
2022-08-16T01:48:19.810Z,12.43
2022-08-16T01:51:09.315Z,13.25
2022-08-16T01:53:35.970Z,12.43
2022-08-16T01:56:23.414Z,12.90
2022-08-16T01:58:51.614Z,13.25
2022-08-16T02:01:18.299Z,11.88
2022-08-16T02:03:44.919Z,12.38
2022-08-16T02:06:34.231Z,13.45
2022-08-16T02:09:05.178Z,14.17
2022-08-16T02:11:47.943Z,14.90
2022-08-16T02:14:21.595Z,13.93
2022-08-16T02:16:49.550Z,15.38
2022-08-16T02:19:18.301Z,16.02
2022-08-16T02:22:08.927Z,16.40
2022-08-16T02:24:42.316Z,15.25
2022-08-16T02:27:12.807Z,15.90
2022-08-16T02:29:41.317Z,16.05
2022-08-16T02:33:02.443Z,15.55
2022-08-16T02:34:56.705Z,15.65
2022-08-16T02:37:24.030Z,15.18
2022-08-16T02:40:11.721Z,15.80
2022-08-16T02:42:38.152Z,14.95
2022-08-16T02:47:31.428Z,14.57
2022-08-16T02:50:53.797Z,14.77
2022-08-16T02:53:04.559Z,15.13
2022-08-16T02:55:41.038Z,15.70
2022-08-16T02:58:08.934Z,16.58
2022-08-16T03:00:36.147Z,17.05
2022-08-16T03:03:04.632Z,16.20
2022-08-16T03:05:36.805Z,15.68
2022-08-16T03:08:05.764Z,15.85
2022-08-16T03:10:52.730Z,16.50
2022-08-16T03:13:20.567Z,15.20
2022-08-16T03:15:49.603Z,15.75
2022-08-16T03:18:34.152Z,16.88
2022-08-16T03:21:01.316Z,15.80
2022-08-16T03:23:35.767Z,15.48
2022-08-16T03:26:03.675Z,14.82
2022-08-16T03:28:30.478Z,16.40
2022-08-16T03:30:57.954Z,16.33
2022-08-16T03:33:29.892Z,16.25
2022-08-16T03:36:19.951Z,15.65
2022-08-16T03:38:49.788Z,15.00
2022-08-16T03:41:25.573Z,14.88
2022-08-16T03:43:57.937Z,15.68
2022-08-16T03:46:47.624Z,16.10
2022-08-16T03:49:17.225Z,15.30
2022-08-16T03:51:47.056Z,15.30
2022-08-16T03:54:20.231Z,14.63
2022-08-16T03:56:57.863Z,14.60
2022-08-16T03:59:29.323Z,13.00
2022-08-16T04:01:56.114Z,13.55
2022-08-16T04:04:33.169Z,13.75
2022-08-16T04:07:04.010Z,11.43
2022-08-16T04:09:35.657Z,10.93
2022-08-16T04:12:10.870Z,10.57
2022-08-16T04:14:52.060Z,10.52
2022-08-16T04:17:18.540Z,11.50
2022-08-16T04:19:46.512Z,11.23
2022-08-16T04:22:17.158Z,11.60
2022-08-16T04:24:54.138Z,11.98
2022-08-16T04:27:22.338Z,12.95
2022-08-16T04:29:52.157Z,13.55
2022-08-16T04:32:19.973Z,12.88
2022-08-16T04:34:48.338Z,13.50
2022-08-16T04:39:55.203Z,14.55
2022-08-16T04:42:26.190Z,14.40
2022-08-16T04:44:57.711Z,15.05
2022-08-16T04:47:31.332Z,15.88
2022-08-16T04:49:59.527Z,15.52
2022-08-16T04:52:33.645Z,16.20
2022-08-16T04:55:12.316Z,15.45
2022-08-16T04:57:41.379Z,15.88
2022-08-16T05:00:31.062Z,16.65
2022-08-16T05:03:07.535Z,16.02
2022-08-16T05:05:55.319Z,15.82
2022-08-16T05:08:28.459Z,15.50
2022-08-16T05:11:05.693Z,14.73
2022-08-16T05:13:39.923Z,16.50
2022-08-16T05:16:10.034Z,16.80
2022-08-16T05:18:39.240Z,16.65
2022-08-16T05:21:11.344Z,17.05
2022-08-16T05:23:51.434Z,15.93
2022-08-16T05:26:27.757Z,17.83
2022-08-16T05:28:55.636Z,16.27
2022-08-16T05:31:23.691Z,15.98
2022-08-16T05:33:57.543Z,17.13
2022-08-16T05:36:24.825Z,15.93
2022-08-16T05:39:01.186Z,16.30
2022-08-16T05:41:29.183Z,16.17
2022-08-16T05:44:00.186Z,17.02
2022-08-16T05:46:43.685Z,17.90
2022-08-16T05:51:45.923Z,16.75
2022-08-16T05:54:17.458Z,17.33
2022-08-16T05:56:52.354Z,18.17
2022-08-16T05:59:19.480Z,17.75
2022-08-16T06:01:50.543Z,18.48
2022-08-16T06:04:36.374Z,19.10
2022-08-16T06:07:09.603Z,19.27
2022-08-16T06:09:59.685Z,18.52
2022-08-16T06:12:28.836Z,18.85
2022-08-16T06:15:07.860Z,18.52
2022-08-16T06:17:43.375Z,20.25
2022-08-16T06:20:23.640Z,19.83
2022-08-16T06:22:57.305Z,14.23
2022-08-16T06:25:36.628Z,17.50
2022-08-16T06:28:16.869Z,17.73
2022-08-16T06:30:45.292Z,19.00
2022-08-16T06:33:22.432Z,18.60
2022-08-16T06:35:55.116Z,21.17
2022-08-16T06:38:33.935Z,19.80
2022-08-16T06:41:12.382Z,19.35
2022-08-16T06:43:41.592Z,18.83
2022-08-16T06:46:32.005Z,20.48
2022-08-16T06:49:05.221Z,19.00
2022-08-16T06:51:46.055Z,19.70
2022-08-16T06:54:18.857Z,20.13
2022-08-16T06:56:45.724Z,18.95
2022-08-16T06:59:13.842Z,19.15
2022-08-16T07:01:54.119Z,21.33
2022-08-16T07:04:31.921Z,22.10
2022-08-16T07:07:01.020Z,20.23
2022-08-16T07:09:29.743Z,20.48
2022-08-16T07:11:56.951Z,20.65
2022-08-16T07:14:31.814Z,20.75
2022-08-16T07:17:00.099Z,21.30
2022-08-16T07:20:01.867Z,20.50
2022-08-16T07:22:52.385Z,20.33
2022-08-16T07:25:04.051Z,19.83
2022-08-16T07:27:33.776Z,19.30
2022-08-16T07:30:38.426Z,20.45
2022-08-16T07:32:56.327Z,19.58
2022-08-16T07:35:23.218Z,20.40
2022-08-16T07:37:50.211Z,20.40
2022-08-16T07:40:58.049Z,21.05
2022-08-16T07:43:12.644Z,19.73
2022-08-16T07:45:39.329Z,19.65
2022-08-16T07:48:12.788Z,19.88
2022-08-16T07:50:56.310Z,20.40
2022-08-16T07:53:24.359Z,19.40
2022-08-16T07:55:55.205Z,18.83
2022-08-16T07:58:33.788Z,20.88
2022-08-16T08:01:05.564Z,20.00
2022-08-16T08:03:38.885Z,19.52
2022-08-16T08:06:10.252Z,19.58
2022-08-16T08:08:51.412Z,20.65
2022-08-16T08:11:21.777Z,19.50
2022-08-16T08:13:51.239Z,19.40
2022-08-16T08:16:21.206Z,19.52
2022-08-16T08:18:49.821Z,18.55
2022-08-16T08:21:27.543Z,18.98
2022-08-16T08:24:09.434Z,19.25
2022-08-16T08:26:39.317Z,18.50
2022-08-16T08:29:10.097Z,19.70
2022-08-16T08:31:42.115Z,19.10
2022-08-16T08:34:15.502Z,17.60
2022-08-16T08:36:54.205Z,17.77
2022-08-16T08:39:34.914Z,17.95
2022-08-16T08:42:25.121Z,17.52
2022-08-16T08:44:53.363Z,18.38
2022-08-16T08:47:21.549Z,18.63
2022-08-16T08:49:55.585Z,18.25
2022-08-16T08:55:11.057Z,17.65
2022-08-16T08:57:41.112Z,18.27
2022-08-16T09:00:21.384Z,16.83
2022-08-16T09:02:52.246Z,17.98
2022-08-16T09:05:20.671Z,16.20
2022-08-16T09:08:00.298Z,16.15
2022-08-16T09:10:42.025Z,15.68
2022-08-16T09:13:08.763Z,15.60
2022-08-16T09:15:48.994Z,16.00
2022-08-16T09:18:26.940Z,15.57
2022-08-16T09:21:02.286Z,15.63
2022-08-16T09:23:36.318Z,17.55
2022-08-16T09:26:42.996Z,16.10
2022-08-16T09:29:15.580Z,16.85
2022-08-16T09:31:41.303Z,17.67
2022-08-16T09:34:08.699Z,16.70
2022-08-16T09:36:35.014Z,14.77
2022-08-16T09:39:03.583Z,17.33
2022-08-16T09:41:30.146Z,17.13
2022-08-16T09:43:59.672Z,16.60
2022-08-16T09:46:48.458Z,15.88
2022-08-16T09:49:15.659Z,16.58
2022-08-16T09:51:42.440Z,18.00
2022-08-16T09:54:10.637Z,16.33
2022-08-16T09:56:52.081Z,15.55
2022-08-16T09:59:20.929Z,16.60
2022-08-16T10:01:49.866Z,16.88
2022-08-16T10:04:30.213Z,12.75
2022-08-16T10:09:53.553Z,16.85
2022-08-16T10:12:42.496Z,15.55
2022-08-16T10:15:10.147Z,16.92
2022-08-16T10:17:42.511Z,16.67
2022-08-16T10:20:11.322Z,17.25
2022-08-16T10:22:45.038Z,15.98
2022-08-16T10:25:11.525Z,15.43
2022-08-16T10:28:28.094Z,13.23
2022-08-16T10:30:44.321Z,12.57
2022-08-16T10:33:11.983Z,11.77
2022-08-16T10:35:46.589Z,12.25
2022-08-16T10:38:27.181Z,13.95
2022-08-16T10:40:54.562Z,11.63
2022-08-16T10:43:20.915Z,11.57
2022-08-16T10:45:59.877Z,13.15
2022-08-16T10:48:28.702Z,14.20
2022-08-16T10:50:58.625Z,15.18
2022-08-16T10:53:33.006Z,14.23
2022-08-16T10:56:01.214Z,15.17
2022-08-16T10:58:34.299Z,15.82
2022-08-16T11:01:39.654Z,15.60
2022-08-16T11:03:49.001Z,14.88
2022-08-16T11:06:21.626Z,12.90
2022-08-16T11:12:13.276Z,14.18
2022-08-16T11:14:26.938Z,13.65
2022-08-16T11:17:10.468Z,14.30
2022-08-16T11:20:00.675Z,16.92
2022-08-16T11:22:39.692Z,14.02
2022-08-16T11:25:12.282Z,14.35
2022-08-16T11:27:39.412Z,16.60
2022-08-16T11:30:09.123Z,16.50
2022-08-16T11:32:39.101Z,15.75
2022-08-16T11:35:13.272Z,15.45
2022-08-16T11:40:33.133Z,14.15
2022-08-16T11:43:00.007Z,14.27
2022-08-16T11:45:26.511Z,14.57
2022-08-16T11:47:53.067Z,13.63
2022-08-16T11:50:19.601Z,14.05
2022-08-16T11:52:46.403Z,14.73
2022-08-16T11:55:13.515Z,13.07
2022-08-16T11:57:40.860Z,12.35
2022-08-16T12:00:33.855Z,12.80
2022-08-16T12:02:58.111Z,13.50
2022-08-16T12:05:25.406Z,12.50
2022-08-16T12:07:55.126Z,12.88
2022-08-16T12:10:22.823Z,13.75
2022-08-16T12:12:49.963Z,13.98
2022-08-16T12:15:19.061Z,11.90
2022-08-16T12:17:45.752Z,13.48
2022-08-16T12:20:18.783Z,11.73
2022-08-16T12:22:45.849Z,11.20
2022-08-16T12:25:14.015Z,10.18
2022-08-16T12:27:44.382Z,10.48
2022-08-16T12:30:26.482Z,10.93
2022-08-16T12:33:03.119Z,12.55
2022-08-16T12:35:30.447Z,11.25
2022-08-16T12:37:58.455Z,12.73
2022-08-16T12:40:29.159Z,10.77
2022-08-16T12:42:59.756Z,10.60
2022-08-16T12:45:31.628Z,13.02
2022-08-16T12:48:34.196Z,12.50
2022-08-16T12:53:31.925Z,11.57
2022-08-16T12:55:58.728Z,12.45
2022-08-16T12:58:49.551Z,12.23
2022-08-16T13:01:12.052Z,15.23
2022-08-16T13:03:40.876Z,14.98
2022-08-16T13:06:07.635Z,15.55
2022-08-16T13:08:34.183Z,15.02
2022-08-16T13:11:01.258Z,16.65
2022-08-16T13:13:29.612Z,14.52
2022-08-16T13:16:03.659Z,15.43
2022-08-16T13:18:33.890Z,16.25
2022-08-16T13:21:02.867Z,16.13
2022-08-16T13:23:29.655Z,15.63
2022-08-16T13:25:57.245Z,17.02
2022-08-16T13:28:23.973Z,16.42
2022-08-16T13:30:51.894Z,16.15
2022-08-16T13:33:26.074Z,15.65
2022-08-16T13:35:58.014Z,17.83
2022-08-16T13:38:37.082Z,17.63
2022-08-16T13:41:05.358Z,18.10
2022-08-16T13:43:34.897Z,14.77
2022-08-16T13:46:04.991Z,15.90
2022-08-16T13:48:37.148Z,13.57
2022-08-16T13:51:16.612Z,12.82
2022-08-16T13:53:44.009Z,13.02
2022-08-16T13:56:10.552Z,13.85
2022-08-16T13:58:54.836Z,13.48
2022-08-16T14:01:21.623Z,10.55
2022-08-16T14:03:49.234Z,8.15
2022-08-16T14:06:15.666Z,6.75
2022-08-16T14:08:45.267Z,6.97
2022-08-16T14:11:25.101Z,7.05
2022-08-16T14:13:52.508Z,7.63
2022-08-16T14:16:23.809Z,7.45
2022-08-16T14:18:52.930Z,7.55
2022-08-16T14:21:19.814Z,7.88
2022-08-16T14:23:48.594Z,8.00
2022-08-16T14:26:14.993Z,7.53
2022-08-16T14:28:41.325Z,8.20
2022-08-16T14:31:10.535Z,7.60
2022-08-16T14:33:37.412Z,8.43
2022-08-16T14:36:03.870Z,10.07
2022-08-16T14:38:37.578Z,10.60
2022-08-16T14:41:06.916Z,9.88
2022-08-16T14:43:36.602Z,11.57
2022-08-16T14:46:04.555Z,10.52
2022-08-16T14:48:33.830Z,10.00
2022-08-16T14:51:15.748Z,9.65
2022-08-16T14:53:45.347Z,9.40
2022-08-16T14:56:17.292Z,10.88
2022-08-16T14:58:59.423Z,9.50
2022-08-16T15:01:57.418Z,9.35
2022-08-16T15:04:13.432Z,10.30
2022-08-16T15:06:59.742Z,10.13
2022-08-16T15:09:26.257Z,10.32
2022-08-16T15:11:52.598Z,10.80
2022-08-16T15:14:20.253Z,10.55
2022-08-16T15:16:46.700Z,10.10
2022-08-16T15:19:13.254Z,10.80
2022-08-16T15:21:43.486Z,10.48
2022-08-16T15:24:16.833Z,11.38
2022-08-16T15:26:49.341Z,9.15
2022-08-16T15:29:16.513Z,10.45
2022-08-16T15:31:44.368Z,10.52
2022-08-16T15:34:22.140Z,10.10
2022-08-16T15:36:52.828Z,11.10
2022-08-16T15:39:30.359Z,10.52
2022-08-16T15:42:28.071Z,8.60
2022-08-16T15:44:58.419Z,7.90
2022-08-16T15:47:27.259Z,7.38
2022-08-16T15:49:55.537Z,7.40
2022-08-16T15:52:29.933Z,7.90
2022-08-16T15:54:57.226Z,7.70
2022-08-16T15:57:24.739Z,7.55
2022-08-16T15:59:52.908Z,8.10
2022-08-16T16:02:29.566Z,8.20
2022-08-16T16:04:57.891Z,8.05
2022-08-16T16:07:27.434Z,7.25
2022-08-16T16:09:56.432Z,6.72
2022-08-16T16:12:51.461Z,6.68
2022-08-16T16:15:12.129Z,6.45
2022-08-16T16:17:38.434Z,6.00
2022-08-16T16:20:04.978Z,5.85
2022-08-16T16:22:34.487Z,6.50
2022-08-16T16:25:00.983Z,5.95
2022-08-16T16:27:28.274Z,7.35
2022-08-16T16:29:58.026Z,7.07
2022-08-16T16:32:34.753Z,7.47
2022-08-16T16:35:01.920Z,7.60
2022-08-16T16:37:28.625Z,6.65
2022-08-16T16:39:54.985Z,7.15
2022-08-16T16:42:29.283Z,6.80
2022-08-16T16:45:00.752Z,7.63
2022-08-16T16:47:27.771Z,6.57
2022-08-16T16:49:54.945Z,7.60
2022-08-16T16:52:43.668Z,8.43
2022-08-16T16:55:09.293Z,8.07
2022-08-16T16:57:54.595Z,7.50
2022-08-16T17:00:29.767Z,6.43
2022-08-16T17:02:57.108Z,6.50
2022-08-16T17:05:26.561Z,5.93
2022-08-16T17:07:55.567Z,5.50
2022-08-16T17:10:46.138Z,5.80
2022-08-16T17:13:08.767Z,5.97
2022-08-16T17:15:36.709Z,5.22
2022-08-16T17:18:04.450Z,4.90
2022-08-16T17:20:49.826Z,4.60
2022-08-16T17:23:19.660Z,4.50
2022-08-16T17:25:46.065Z,4.63
2022-08-16T17:28:58.070Z,4.72
2022-08-16T17:31:05.246Z,7.40
2022-08-16T17:36:36.367Z,9.75
2022-08-16T17:39:03.774Z,10.93
2022-08-16T17:39:28.531Z,9.13
2022-08-16T17:41:30.190Z,9.98
2022-08-16T17:43:56.552Z,10.57
2022-08-16T17:46:50.667Z,10.27
2022-08-16T17:49:12.054Z,9.95
2022-08-16T17:51:38.789Z,9.77
2022-08-16T17:54:07.487Z,10.35
2022-08-16T17:56:46.815Z,9.82
2022-08-16T17:59:14.626Z,10.10
2022-08-16T18:01:42.411Z,9.07
2022-08-16T18:04:10.039Z,9.48
2022-08-16T18:06:36.931Z,9.95
2022-08-16T18:09:04.077Z,9.40
2022-08-16T18:11:33.663Z,9.57
2022-08-16T18:14:00.036Z,9.80
2022-08-16T18:16:26.804Z,9.68
2022-08-16T18:18:53.108Z,9.88
2022-08-16T18:21:38.307Z,10.43
2022-08-16T18:26:30.910Z,11.68
2022-08-16T18:28:57.281Z,11.48
2022-08-16T18:31:23.691Z,13.07
